FKKN

N'Gaoundéré Airport

N'Gaoundéré, Cameroon
METAR FKKN 201500Z 29006KT 9999 TS SCT016 FEW020CB 23/20 Q1014
Observed Flight Rules
Aug-20 @ 15:00 UTC (an hour ago) Visual Flight Rules
Wind Visibility Clouds Conditions
290° at 6 knots 10,000+ meters
  • Scattered at 1,600' AGL
  • Few at 2,000' AGL
  • Thunderstorm
Temperatures Readings
Current 23°C / 73°F
Dewpoint 20°C / 68°F
Humidity 83%
Altimeter 29.94" Hg
Pressure 1014 hPa
Elevation 1104
METAR FKKN 201500Z 29006KT 9999 TS SCT016 FEW020CB 23/20 Q1014
Observed Flight Rules
Aug-20 @ 15:00 UTC
(an hour ago)
VFR
Wind Visibility
290° at 6 knots 10,000+ meters
Clouds
  • Scattered at 1,600' AGL
  • Few at 2,000' AGL
Conditions
  • Thunderstorm
Temperature Dewpoint
23°C / 73°F 20°C / 68°F
Humidity Altimeter Pressure
83% 29.94" Hg 1014 hPa